Time;durP1;ratioP1;P1;durP2;ratioP2;P2;SDS_P1;SDS_P2;PMS_P1;PMS_P2;Temp;Humidity;BMP_temperature;BMP_pressure;BME280_temperature;BME280_humidity;BME280_pressure;Samples;Min_cycle;Max_cycle;Signal;HPM_P1;HPM_P2
2022/09/01 00:01:33;;;;;;;0.00;0.00;;;22.90;57.00;;;;;;4193263;28;20078;-63
2022/09/01 00:04:16;;;;;;;0.38;0.38;;;22.90;57.10;;;;;;4177090;28;20406;-63
2022/09/01 00:06:58;;;;;;;0.00;0.00;;;22.90;57.20;;;;;;4175958;28;20052;-63
2022/09/01 00:09:40;;;;;;;0.00;0.00;;;22.90;57.20;;;;;;4190861;28;20090;-63
2022/09/01 00:12:24;;;;;;;0.00;0.00;;;22.90;57.10;;;;;;4192597;28;20548;-63
2022/09/01 00:15:07;;;;;;;0.00;0.00;;;22.80;57.20;;;;;;4191178;28;20055;-63
2022/09/01 00:17:48;;;;;;;0.00;0.00;;;22.80;57.00;;;;;;4192546;28;20523;-63
2022/09/01 00:20:29;;;;;;;0.00;0.00;;;22.80;57.30;;;;;;4176057;28;20055;-63
2022/09/01 00:23:11;;;;;;;0.00;0.00;;;22.80;57.30;;;;;;4188965;28;20056;-64
2022/09/01 00:25:53;;;;;;;0.10;0.10;;;22.80;57.40;;;;;;4193142;28;20051;-64
2022/09/01 00:28:35;;;;;;;0.00;0.00;;;22.80;57.50;;;;;;4192368;28;20417;-64
2022/09/01 00:31:17;;;;;;;2.45;1.38;;;22.80;57.40;;;;;;4189311;28;20105;-64
2022/09/01 00:33:59;;;;;;;0.00;0.00;;;22.80;57.40;;;;;;4203774;28;20121;-64
2022/09/01 00:36:40;;;;;;;;;;;22.80;57.60;;;;;;4209851;28;20067;-63
2022/09/01 00:39:22;;;;;;;0.00;0.00;;;22.80;57.30;;;;;;4208649;28;19942;-63
2022/09/01 00:42:04;;;;;;;0.00;0.00;;;22.80;57.60;;;;;;4192278;28;20610;-63
2022/09/01 00:44:45;;;;;;;0.00;0.00;;;22.80;57.70;;;;;;4207610;28;20055;-64
2022/09/01 00:47:26;;;;;;;0.17;0.17;;;22.80;57.70;;;;;;4207625;28;20050;-63
2022/09/01 00:50:08;;;;;;;;;;;22.80;57.80;;;;;;4209286;28;20051;-63
2022/09/01 00:52:51;;;;;;;0.00;0.00;;;22.70;57.50;;;;;;4174447;28;19928;-63
2022/09/01 00:55:36;;;;;;;0.00;0.00;;;22.80;57.70;;;;;;4174265;28;20044;-63
2022/09/01 00:58:17;;;;;;;0.00;0.00;;;22.70;57.80;;;;;;4175895;28;20479;-63
2022/09/01 01:00:58;;;;;;;0.00;0.00;;;22.70;57.80;;;;;;4177082;28;20102;-63
2022/09/01 01:03:45;;;;;;;;;;;22.70;57.80;;;;;;4177456;28;20381;-63
2022/09/01 01:06:29;;;;;;;0.00;0.00;;;22.70;57.90;;;;;;4200241;28;20340;-63
2022/09/01 01:09:12;;;;;;;0.00;0.00;;;22.70;58.00;;;;;;4207090;28;20517;-64
2022/09/01 01:11:58;;;;;;;0.00;0.00;;;22.70;58.00;;;;;;4204637;28;20050;-64
2022/09/01 01:14:40;;;;;;;0.00;0.00;;;22.70;58.00;;;;;;4176582;28;20403;-64
2022/09/01 01:17:23;;;;;;;0.00;0.00;;;22.70;58.00;;;;;;4175148;28;20501;-65
2022/09/01 01:23:10;;;;;;;;;;;22.70;58.20;;;;;;4189317;28;20399;-64
2022/09/01 01:25:56;;;;;;;0.00;0.00;;;22.70;58.10;;;;;;4185906;28;19927;-63
2022/09/01 01:28:43;;;;;;;0.10;0.10;;;22.70;58.20;;;;;;4186749;28;20047;-63
2022/09/01 01:31:24;;;;;;;0.00;0.00;;;22.70;58.20;;;;;;4196828;28;20108;-63
2022/09/01 01:34:06;;;;;;;0.00;0.00;;;22.70;58.20;;;;;;4208517;28;20177;-64
2022/09/01 01:36:47;;;;;;;0.00;0.00;;;22.70;58.20;;;;;;4208271;28;20059;-63
2022/09/01 01:39:28;;;;;;;0.00;0.00;;;22.70;58.20;;;;;;4190393;28;20517;-63
2022/09/01 01:42:11;;;;;;;0.00;0.00;;;22.70;58.20;;;;;;4204909;28;20406;-64
2022/09/01 01:44:53;;;;;;;0.00;0.00;;;22.70;58.20;;;;;;4205031;28;20502;-64
2022/09/01 01:47:34;;;;;;;0.00;0.00;;;22.70;58.20;;;;;;4197052;28;20051;-63
2022/09/01 01:50:15;;;;;;;0.00;0.00;;;22.70;58.30;;;;;;4202287;28;20051;-63
2022/09/01 01:52:58;;;;;;;0.00;0.00;;;22.70;58.20;;;;;;4195310;28;20054;-63
2022/09/01 01:55:42;;;;;;;0.00;0.00;;;22.70;58.30;;;;;;4195805;28;20502;-63
2022/09/01 01:58:25;;;;;;;0.00;0.00;;;22.70;58.30;;;;;;4198402;28;20461;-63
2022/09/01 02:01:07;;;;;;;0.00;0.00;;;22.70;58.20;;;;;;4216977;28;20058;-63
2022/09/01 02:03:51;;;;;;;0.00;0.00;;;22.70;58.30;;;;;;4196186;28;20063;-64
2022/09/01 02:06:34;;;;;;;0.00;0.00;;;22.60;59.20;;;;;;4194835;28;20094;-64
2022/09/01 02:09:22;;;;;;;0.00;0.00;;;22.60;58.40;;;;;;4210188;28;20125;-64
2022/09/01 02:12:03;;;;;;;0.00;0.00;;;22.60;59.20;;;;;;4209211;28;20543;-63
2022/09/01 02:14:47;;;;;;;0.00;0.00;;;22.60;58.40;;;;;;4193689;28;20499;-63
2022/09/01 02:17:28;;;;;;;0.00;0.00;;;22.60;58.40;;;;;;4211330;28;20051;-64
2022/09/01 02:20:10;;;;;;;0.32;0.20;;;22.60;58.50;;;;;;4210130;28;20092;-63
2022/09/01 02:22:51;;;;;;;0.00;0.00;;;22.60;58.50;;;;;;4221726;28;20521;-63
2022/09/01 02:25:32;;;;;;;;;;;22.60;58.50;;;;;;4210401;28;20055;-63
2022/09/01 02:28:15;;;;;;;0.00;0.00;;;22.60;58.40;;;;;;4209487;28;19927;-63
2022/09/01 02:31:01;;;;;;;0.00;0.00;;;22.60;58.50;;;;;;4196043;28;20116;-63
2022/09/01 02:33:44;;;;;;;0.00;0.00;;;22.60;58.60;;;;;;4209851;28;20073;-63
2022/09/01 02:36:25;;;;;;;0.00;0.00;;;22.60;58.60;;;;;;4208582;28;20059;-63
2022/09/01 02:39:06;;;;;;;0.15;0.15;;;22.60;58.50;;;;;;4192203;28;20051;-63
2022/09/01 02:41:48;;;;;;;0.10;0.10;;;22.60;58.50;;;;;;4195138;28;20181;-63
2022/09/01 02:44:31;;;;;;;0.00;0.00;;;22.60;58.50;;;;;;4193117;28;20043;-62
2022/09/01 02:47:15;;;;;;;0.00;0.00;;;22.60;58.50;;;;;;4180444;28;20391;-63
2022/09/01 02:49:58;;;;;;;0.00;0.00;;;22.60;58.60;;;;;;4188392;28;20181;-62
2022/09/01 02:52:40;;;;;;;0.00;0.00;;;22.60;58.50;;;;;;4194140;28;20178;-63
2022/09/01 02:55:21;;;;;;;0.00;0.00;;;22.60;58.50;;;;;;4193449;28;20052;-63
2022/09/01 02:58:02;;;;;;;0.00;0.00;;;22.60;58.50;;;;;;4192397;28;20043;-62
2022/09/01 03:00:43;;;;;;;0.00;0.00;;;22.60;58.50;;;;;;4192792;28;20051;-63
2022/09/01 03:03:26;;;;;;;;;;;22.60;59.30;;;;;;4194247;28;20051;-63
2022/09/01 03:06:08;;;;;;;0.00;0.00;;;22.50;58.50;;;;;;4194265;28;19927;-63
2022/09/01 03:08:50;;;;;;;0.00;0.00;;;22.50;58.60;;;;;;4199144;28;20514;-63
2022/09/01 03:11:33;;;;;;;0.00;0.00;;;22.50;58.60;;;;;;4192963;28;20051;-63
2022/09/01 03:14:15;;;;;;;0.00;0.00;;;22.50;58.70;;;;;;4192653;28;20044;-63
2022/09/01 03:16:59;;;;;;;0.10;0.10;;;22.50;58.70;;;;;;4188119;28;20075;-63
2022/09/01 03:19:43;;;;;;;0.00;0.00;;;22.50;58.70;;;;;;4177920;28;20052;-63
2022/09/01 03:22:25;;;;;;;0.00;0.00;;;22.50;58.80;;;;;;4175925;28;20098;-63
2022/09/01 03:25:07;;;;;;;0.00;0.00;;;22.50;58.80;;;;;;4186528;28;20056;-63
2022/09/01 03:27:49;;;;;;;0.00;0.00;;;22.50;58.90;;;;;;4206389;28;20055;-63
2022/09/01 03:30:31;;;;;;;0.00;0.00;;;22.50;58.70;;;;;;4197772;28;20436;-63
2022/09/01 03:33:13;;;;;;;3.30;1.25;;;22.50;58.80;;;;;;4208614;28;20054;-63
2022/09/01 03:35:56;;;;;;;0.00;0.00;;;22.50;58.80;;;;;;4220643;28;20055;-63
2022/09/01 03:38:37;;;;;;;0.00;0.00;;;22.50;58.80;;;;;;4194427;28;20181;-63
2022/09/01 03:41:21;;;;;;;0.00;0.00;;;22.50;58.80;;;;;;4208900;28;20071;-63
2022/09/01 03:44:02;;;;;;;0.00;0.00;;;22.50;58.80;;;;;;4193135;28;20047;-63
2022/09/01 03:46:46;;;;;;;0.00;0.00;;;22.50;58.80;;;;;;4195859;28;20129;-63
2022/09/01 03:49:27;;;;;;;0.00;0.00;;;22.50;58.80;;;;;;4188386;28;20380;-63
2022/09/01 03:52:11;;;;;;;0.10;0.10;;;22.50;58.80;;;;;;4175604;28;20122;-63
2022/09/01 03:54:52;;;;;;;0.00;0.00;;;22.50;58.80;;;;;;4181619;28;20146;-63
2022/09/01 03:57:36;;;;;;;0.00;0.00;;;22.50;58.80;;;;;;4194036;28;20507;-63
2022/09/01 04:00:21;;;;;;;0.00;0.00;;;22.50;58.80;;;;;;4193225;28;20043;-62
2022/09/01 04:03:06;;;;;;;0.00;0.00;;;22.50;58.90;;;;;;4208620;28;20055;-63
2022/09/01 04:05:47;;;;;;;0.00;0.00;;;22.50;58.80;;;;;;4206025;28;20206;-63
2022/09/01 04:08:30;;;;;;;0.00;0.00;;;22.40;58.90;;;;;;4191172;28;20056;-63
2022/09/01 04:11:17;;;;;;;0.00;0.00;;;22.40;58.80;;;;;;4192729;28;20055;-64
2022/09/01 04:14:00;;;;;;;0.00;0.00;;;22.40;58.80;;;;;;4206122;28;20574;-65
2022/09/01 04:19:42;;;;;;;0.00;0.00;;;22.40;58.80;;;;;;4185709;28;20072;-63
2022/09/01 04:22:28;;;;;;;;;;;22.40;58.80;;;;;;4187709;28;20048;-63
2022/09/01 04:25:11;;;;;;;0.00;0.00;;;22.40;58.80;;;;;;4187520;28;19928;-63
2022/09/01 04:27:54;;;;;;;0.00;0.00;;;22.40;58.80;;;;;;4174646;28;20586;-63
2022/09/01 04:30:39;;;;;;;0.00;0.00;;;22.40;58.90;;;;;;4174428;28;20056;-63
2022/09/01 04:33:21;;;;;;;0.00;0.00;;;22.40;58.90;;;;;;4174853;28;20137;-62
2022/09/01 04:36:03;;;;;;;0.00;0.00;;;22.40;58.90;;;;;;4179277;28;20052;-63
2022/09/01 04:38:44;;;;;;;0.00;0.00;;;22.30;58.90;;;;;;4190967;28;20067;-62
2022/09/01 04:41:30;;;;;;;0.00;0.00;;;22.30;59.00;;;;;;4192508;28;20059;-63
2022/09/01 04:44:15;;;;;;;0.00;0.00;;;22.30;59.00;;;;;;4207945;28;20055;-62
2022/09/01 04:46:56;;;;;;;0.00;0.00;;;22.30;59.10;;;;;;4188516;28;20098;-62
2022/09/01 04:49:38;;;;;;;0.00;0.00;;;22.30;59.20;;;;;;4202941;28;20055;-63
2022/09/01 04:52:19;;;;;;;0.00;0.00;;;22.30;59.30;;;;;;4190975;28;20064;-62
2022/09/01 04:55:02;;;;;;;0.00;0.00;;;22.30;59.20;;;;;;4185889;28;20431;-63
2022/09/01 04:57:48;;;;;;;0.00;0.00;;;22.30;59.20;;;;;;4202172;28;20604;-62
2022/09/01 05:00:31;;;;;;;0.00;0.00;;;22.30;59.30;;;;;;4207936;28;20055;-62
2022/09/01 05:03:13;;;;;;;0.00;0.00;;;22.30;59.30;;;;;;4206624;28;20063;-62
2022/09/01 05:06:13;;;;;;;0.00;0.00;;;22.20;59.30;;;;;;4205698;28;20128;-61
2022/09/01 05:09:03;;;;;;;0.00;0.00;;;22.20;59.30;;;;;;4205461;28;20055;-64
2022/09/01 05:12:11;;;;;;;0.00;0.00;;;22.20;59.70;;;;;;4181513;28;20047;-63
2022/09/01 05:14:57;;;;;;;0.00;0.00;;;22.20;59.60;;;;;;4204064;28;20071;-63
2022/09/01 05:17:49;;;;;;;0.00;0.00;;;22.20;59.70;;;;;;4154797;28;20379;-63
2022/09/01 05:20:34;;;;;;;0.00;0.00;;;22.30;59.90;;;;;;4177228;28;20550;-63
2022/09/01 05:23:18;;;;;;;0.00;0.00;;;22.20;59.70;;;;;;4182877;28;20058;-63
2022/09/01 05:26:02;;;;;;;0.00;0.00;;;22.20;59.60;;;;;;4190363;28;20146;-63
2022/09/01 05:28:46;;;;;;;0.00;0.00;;;22.20;59.60;;;;;;4187293;28;20548;-64
2022/09/01 05:31:36;;;;;;;0.00;0.00;;;22.20;59.50;;;;;;4183609;28;20133;-63
2022/09/01 05:34:26;;;;;;;0.00;0.00;;;22.20;59.70;;;;;;4177122;28;20048;-63
2022/09/01 05:37:10;;;;;;;0.00;0.00;;;22.20;59.60;;;;;;4189233;28;20094;-63
2022/09/01 05:39:54;;;;;;;0.10;0.10;;;22.20;59.50;;;;;;4193813;28;20051;-64
2022/09/01 05:42:46;;;;;;;0.75;0.65;;;22.20;59.60;;;;;;4193252;28;20116;-64
2022/09/01 05:45:28;;;;;;;0.00;0.00;;;22.10;59.60;;;;;;4204610;28;20113;-63
2022/09/01 05:48:22;;;;;;;0.00;0.00;;;22.10;59.60;;;;;;4191103;28;20058;-64
2022/09/01 05:51:06;;;;;;;0.77;0.77;;;22.10;59.70;;;;;;4203245;28;20052;-65
2022/09/01 05:54:06;;;;;;;0.00;0.00;;;22.10;59.80;;;;;;4178672;28;20054;-64
2022/09/01 05:56:48;;;;;;;0.00;0.00;;;22.10;59.70;;;;;;4168677;28;20898;-64
2022/09/01 05:59:34;;;;;;;0.00;0.00;;;22.10;59.80;;;;;;4181577;28;20411;-64
2022/09/01 06:02:25;;;;;;;0.47;0.47;;;22.00;59.80;;;;;;4162121;28;20052;-64
2022/09/01 06:05:14;;;;;;;0.00;0.00;;;22.00;59.80;;;;;;4182086;28;20117;-65
2022/09/01 06:07:59;;;;;;;0.00;0.00;;;22.10;59.90;;;;;;4206741;28;20518;-63
2022/09/01 06:10:47;;;;;;;0.52;0.52;;;22.10;59.90;;;;;;4195305;28;20058;-63
2022/09/01 06:13:29;;;;;;;0.25;0.25;;;22.00;61.80;;;;;;4177937;28;20485;-62
2022/09/01 06:16:14;;;;;;;0.20;0.20;;;22.10;65.70;;;;;;4183527;28;20138;-63
2022/09/01 06:18:57;;;;;;;1.55;1.20;;;22.10;69.60;;;;;;4181954;28;20074;-63
2022/09/01 06:21:42;;;;;;;0.63;0.63;;;22.20;71.80;;;;;;4170273;28;20048;-63
2022/09/01 06:24:24;;;;;;;2.40;1.08;;;22.20;71.10;;;;;;4182680;28;20109;-62
2022/09/01 06:27:09;;;;;;;1.17;1.17;;;22.20;68.50;;;;;;4198439;28;20051;-63
2022/09/01 06:29:55;;;;;;;0.57;0.57;;;22.20;67.20;;;;;;4172333;28;20068;-63
2022/09/01 06:32:37;;;;;;;0.90;0.90;;;22.10;66.20;;;;;;4174328;28;20430;-63
2022/09/01 06:35:19;;;;;;;0.32;0.32;;;22.10;65.40;;;;;;4188905;28;20169;-63
2022/09/01 06:38:03;;;;;;;0.10;0.10;;;22.10;65.00;;;;;;4165296;28;20423;-63
2022/09/01 06:41:03;;;;;;;0.20;0.20;;;22.10;64.30;;;;;;4188749;28;20137;-63
2022/09/01 06:43:46;;;;;;;0.00;0.00;;;22.10;64.00;;;;;;4207001;28;20272;-63
2022/09/01 06:46:28;;;;;;;4.80;1.25;;;22.10;63.80;;;;;;4191919;28;20146;-63
2022/09/01 06:49:14;;;;;;;0.77;0.77;;;22.00;63.40;;;;;;4206611;28;20261;-63
2022/09/01 06:51:56;;;;;;;0.52;0.43;;;22.00;63.40;;;;;;4195903;28;20066;-63
2022/09/01 06:54:42;;;;;;;0.20;0.20;;;22.10;63.10;;;;;;4196950;28;20557;-66
2022/09/01 06:57:28;;;;;;;0.00;0.00;;;22.10;63.20;;;;;;4191109;28;20505;-63
2022/09/01 07:00:30;;;;;;;0.00;0.00;;;22.00;63.10;;;;;;4193104;28;20051;-62
2022/09/01 07:03:13;;;;;;;0.00;0.00;;;22.00;63.00;;;;;;4199331;28;20063;-62
2022/09/01 07:06:06;;;;;;;0.10;0.10;;;22.00;62.90;;;;;;4202824;28;20055;-63
2022/09/01 07:09:07;;;;;;;0.00;0.00;;;22.00;62.70;;;;;;4204719;28;20055;-63
2022/09/01 07:12:30;;;;;;;0.00;0.00;;;22.00;62.60;;;;;;4185037;28;20094;-62
2022/09/01 07:15:16;;;;;;;0.00;0.00;;;21.90;62.60;;;;;;4192419;28;20052;-63
2022/09/01 07:18:20;;;;;;;0.00;0.00;;;22.00;62.60;;;;;;4189206;28;20551;-61
2022/09/01 07:21:06;;;;;;;0.00;0.00;;;21.90;62.00;;;;;;4190509;28;20044;-60
2022/09/01 07:24:07;;;;;;;0.00;0.00;;;21.90;62.00;;;;;;4184313;28;20067;-61
2022/09/01 07:26:51;;;;;;;0.00;0.00;;;22.00;61.80;;;;;;4199214;28;20502;-61
2022/09/01 07:29:34;;;;;;;;;;;21.90;62.30;;;;;;4206914;28;20105;-61
2022/09/01 07:32:15;;;;;;;0.00;0.00;;;21.90;61.70;;;;;;4199177;28;19931;-62
2022/09/01 07:35:20;;;;;;;0.00;0.00;;;21.90;61.80;;;;;;4188471;28;20080;-63
2022/09/01 07:38:03;;;;;;;0.00;0.00;;;22.00;62.20;;;;;;4208160;28;20056;-61
2022/09/01 07:41:03;;;;;;;0.00;0.00;;;21.90;62.20;;;;;;4190506;28;20055;-62
2022/09/01 07:44:17;;;;;;;0.00;0.00;;;21.90;62.10;;;;;;4189018;28;20055;-62
2022/09/01 07:47:24;;;;;;;0.00;0.00;;;21.90;62.00;;;;;;4192952;28;20478;-62
2022/09/01 07:50:27;;;;;;;0.00;0.00;;;21.90;62.20;;;;;;4183812;28;20110;-62
2022/09/01 07:53:31;;;;;;;0.00;0.00;;;21.90;62.30;;;;;;4173111;28;20060;-61
2022/09/01 07:56:13;;;;;;;0.00;0.00;;;21.90;62.30;;;;;;4178023;28;20186;-62
2022/09/01 07:58:58;;;;;;;0.00;0.00;;;21.90;62.20;;;;;;4188283;28;20508;-61
2022/09/01 08:01:41;;;;;;;0.00;0.00;;;21.90;61.80;;;;;;4199113;28;20493;-62
2022/09/01 08:04:25;;;;;;;0.00;0.00;;;21.90;62.00;;;;;;4201740;28;20137;-62
2022/09/01 08:07:10;;;;;;;0.00;0.00;;;22.00;62.30;;;;;;4198300;28;20503;-61
2022/09/01 08:09:56;;;;;;;0.00;0.00;;;22.00;62.20;;;;;;4177196;28;20178;-61
2022/09/01 08:12:42;;;;;;;0.00;0.00;;;22.10;62.30;;;;;;4184542;28;20109;-61
2022/09/01 08:15:25;;;;;;;0.10;0.10;;;22.20;62.10;;;;;;4188259;28;20199;-62
2022/09/01 08:18:25;;;;;;;0.00;0.00;;;22.20;61.90;;;;;;4177737;28;20078;-63
2022/09/01 08:21:09;;;;;;;;;;;22.30;61.80;;;;;;4202209;28;20122;-62
2022/09/01 08:24:08;;;;;;;0.00;0.00;;;22.40;61.80;;;;;;4186928;28;20074;-62
2022/09/01 08:26:50;;;;;;;0.00;0.00;;;22.40;61.30;;;;;;4181285;28;20102;-62
2022/09/01 08:29:31;;;;;;;0.00;0.00;;;22.50;61.00;;;;;;4199754;28;20075;-62
2022/09/01 08:32:12;;;;;;;0.00;0.00;;;22.50;61.10;;;;;;4196247;28;20055;-63
2022/09/01 08:34:53;;;;;;;0.00;0.00;;;22.60;61.00;;;;;;4195148;28;20075;-62
2022/09/01 08:37:36;;;;;;;0.00;0.00;;;22.60;60.90;;;;;;4187412;28;20056;-62
2022/09/01 08:40:22;;;;;;;0.20;0.20;;;22.70;60.90;;;;;;4197574;28;20629;-62
2022/09/01 08:43:14;;;;;;;0.20;0.20;;;22.70;60.80;;;;;;4189006;28;20047;-62
2022/09/01 08:45:58;;;;;;;0.00;0.00;;;22.80;60.60;;;;;;4196103;28;20062;-62
2022/09/01 08:48:41;;;;;;;0.00;0.00;;;22.80;61.30;;;;;;4189197;28;20141;-62
2022/09/01 08:51:53;;;;;;;0.00;0.00;;;22.90;60.40;;;;;;4197729;28;20059;-62
2022/09/01 08:54:44;;;;;;;0.00;0.00;;;22.90;60.40;;;;;;4193974;28;20055;-62
2022/09/01 08:57:31;;;;;;;0.00;0.00;;;23.00;60.30;;;;;;4175652;28;20055;-62
2022/09/01 09:00:42;;;;;;;0.00;0.00;;;23.00;60.00;;;;;;4173989;28;20125;-62
2022/09/01 09:03:35;;;;;;;0.20;0.20;;;23.00;59.80;;;;;;4176187;28;20047;-62
2022/09/01 09:06:34;;;;;;;0.00;0.00;;;23.00;59.90;;;;;;4163991;28;20056;-62
2022/09/01 09:09:15;;;;;;;0.00;0.00;;;23.10;59.60;;;;;;4175156;28;20059;-62
2022/09/01 09:12:14;;;;;;;0.00;0.00;;;23.10;59.40;;;;;;4187231;28;20055;-61
2022/09/01 09:15:09;;;;;;;0.00;0.00;;;23.10;59.30;;;;;;4183291;28;20059;-61
2022/09/01 09:17:58;;;;;;;0.00;0.00;;;23.20;59.40;;;;;;4186740;28;20144;-61
2022/09/01 09:20:42;;;;;;;0.10;0.10;;;23.20;59.40;;;;;;4190579;28;20079;-62
2022/09/01 09:23:28;;;;;;;0.52;0.52;;;23.20;58.50;;;;;;4175383;28;20442;-61
2022/09/01 09:26:09;;;;;;;0.00;0.00;;;23.30;59.10;;;;;;4174491;28;20178;-62
2022/09/01 09:28:53;;;;;;;0.73;0.73;;;23.30;58.90;;;;;;4174646;28;20052;-61
2022/09/01 09:31:41;;;;;;;0.00;0.00;;;23.30;59.00;;;;;;4173808;28;20060;-62
2022/09/01 09:34:33;;;;;;;0.00;0.00;;;23.40;58.90;;;;;;4174636;28;20048;-62
2022/09/01 09:37:21;;;;;;;;;;;23.40;58.80;;;;;;4173640;28;20415;-65
2022/09/01 09:40:10;;;;;;;0.00;0.00;;;23.50;58.90;;;;;;4174127;28;20400;-61
2022/09/01 09:43:07;;;;;;;0.00;0.00;;;23.40;58.90;;;;;;4184204;28;20105;-62
2022/09/01 09:45:49;;;;;;;0.00;0.00;;;23.50;58.90;;;;;;4175378;28;20056;-62
2022/09/01 09:48:33;;;;;;;0.00;0.00;;;23.50;58.80;;;;;;4186832;28;20126;-62
2022/09/01 09:51:17;;;;;;;0.00;0.00;;;23.50;58.70;;;;;;4205074;28;20073;-62
2022/09/01 09:54:13;;;;;;;0.00;0.00;;;23.50;58.60;;;;;;4189999;28;20689;-61
2022/09/01 09:57:09;;;;;;;0.17;0.17;;;23.60;58.60;;;;;;4205382;28;20074;-61
2022/09/01 09:59:56;;;;;;;0.00;0.00;;;23.60;58.60;;;;;;4189956;28;20113;-64
2022/09/01 10:02:43;;;;;;;0.08;0.08;;;23.60;58.90;;;;;;4180563;28;20067;-61
2022/09/01 10:05:35;;;;;;;0.00;0.00;;;23.70;59.00;;;;;;4177794;28;20060;-62
2022/09/01 10:08:44;;;;;;;0.00;0.00;;;23.70;58.10;;;;;;4180871;28;20060;-62
2022/09/01 10:11:29;;;;;;;0.95;0.63;;;23.80;58.50;;;;;;4183635;28;20052;-62
2022/09/01 10:14:18;;;;;;;0.00;0.00;;;23.80;58.60;;;;;;4177604;28;20060;-62
2022/09/01 10:17:19;;;;;;;0.17;0.17;;;23.80;58.20;;;;;;4197412;28;20478;-61
2022/09/01 10:20:06;;;;;;;0.43;0.43;;;23.80;58.30;;;;;;4197088;28;20105;-62
2022/09/01 10:22:48;;;;;;;2.40;1.65;;;23.80;57.70;;;;;;4181767;28;20127;-62
2022/09/01 10:25:34;;;;;;;4.63;1.45;;;23.90;58.00;;;;;;4177480;28;20345;-61
2022/09/01 10:28:20;;;;;;;0.55;0.55;;;23.90;57.70;;;;;;4192937;28;20059;-61
2022/09/01 10:31:02;;;;;;;1.13;1.00;;;23.90;57.30;;;;;;4191812;28;20129;-62
2022/09/01 10:33:43;;;;;;;0.13;0.13;;;23.90;56.90;;;;;;4180572;28;20059;-62
2022/09/01 10:36:25;;;;;;;0.20;0.20;;;23.90;57.10;;;;;;4184246;28;20052;-61
2022/09/01 10:39:11;;;;;;;0.28;0.28;;;24.00;55.80;;;;;;4186922;28;20610;-61
2022/09/01 10:41:55;;;;;;;0.10;0.10;;;24.00;55.60;;;;;;4178216;28;20060;-61
2022/09/01 10:44:56;;;;;;;0.10;0.10;;;24.00;55.20;;;;;;4178629;28;20060;-61
2022/09/01 10:47:38;;;;;;;0.00;0.00;;;24.00;55.30;;;;;;4177976;28;20167;-61
2022/09/01 10:50:27;;;;;;;0.43;0.43;;;23.90;55.00;;;;;;4190482;28;20047;-62
2022/09/01 10:53:10;;;;;;;0.00;0.00;;;23.90;54.80;;;;;;4205217;28;20054;-61
2022/09/01 10:56:02;;;;;;;0.55;0.55;;;23.90;52.80;;;;;;4203397;28;20052;-61
2022/09/01 10:59:05;;;;;;;;;;;23.90;52.80;;;;;;4207596;28;20054;-61
2022/09/01 11:02:14;;;;;;;0.28;0.28;;;23.90;53.80;;;;;;4195115;28;19931;-62
2022/09/01 11:05:14;;;;;;;0.68;0.68;;;23.90;54.20;;;;;;4193919;28;20056;-62
2022/09/01 11:07:55;;;;;;;0.00;0.00;;;23.90;54.50;;;;;;4193078;28;20137;-63
2022/09/01 11:10:53;;;;;;;0.00;0.00;;;23.90;54.30;;;;;;4194923;28;20773;-62
2022/09/01 11:13:43;;;;;;;0.00;0.00;;;23.90;51.90;;;;;;4201689;28;20066;-63
2022/09/01 11:16:35;;;;;;;1.80;1.65;;;23.90;52.60;;;;;;4179331;28;20063;-62
2022/09/01 11:19:40;;;;;;;0.93;0.55;;;23.90;52.10;;;;;;4184484;28;20139;-62
2022/09/01 11:22:29;;;;;;;0.05;0.05;;;23.90;52.40;;;;;;4177813;28;20750;-62
2022/09/01 11:25:34;;;;;;;1.55;1.45;;;24.00;52.30;;;;;;4191633;28;20097;-62
2022/09/01 11:28:40;;;;;;;0.00;0.00;;;24.00;53.00;;;;;;4183088;28;20075;-63
2022/09/01 11:31:29;;;;;;;;;;;24.00;53.10;;;;;;4177904;28;20455;-62
2022/09/01 11:34:22;;;;;;;0.05;0.05;;;24.00;53.10;;;;;;4191321;28;20078;-62
2022/09/01 11:37:15;;;;;;;0.15;0.15;;;24.00;53.00;;;;;;4176697;28;20059;-62
2022/09/01 11:40:00;;;;;;;0.20;0.20;;;24.00;53.10;;;;;;4178189;28;20052;-63
2022/09/01 11:42:44;;;;;;;0.00;0.00;;;24.10;51.70;;;;;;4176915;28;20060;-62
2022/09/01 11:45:31;;;;;;;0.20;0.20;;;24.10;52.20;;;;;;4190573;28;20190;-63
2022/09/01 11:48:14;;;;;;;0.00;0.00;;;24.10;50.80;;;;;;4182799;28;20388;-62
2022/09/01 11:50:59;;;;;;;0.10;0.10;;;24.20;51.40;;;;;;4180838;28;20063;-62
2022/09/01 11:53:41;;;;;;;0.00;0.00;;;24.20;50.80;;;;;;4178774;28;20051;-63
2022/09/01 11:56:26;;;;;;;0.00;0.00;;;24.20;50.80;;;;;;4184544;28;20154;-63
2022/09/01 11:59:07;;;;;;;0.10;0.10;;;24.30;49.40;;;;;;4182414;28;20061;-63
2022/09/01 12:01:57;;;;;;;5.53;0.98;;;24.30;49.50;;;;;;4186554;28;20072;-63
2022/09/01 12:04:39;;;;;;;0.00;0.00;;;24.30;50.20;;;;;;4181784;28;20052;-62
2022/09/01 12:07:35;;;;;;;0.00;0.00;;;24.30;50.00;;;;;;4180761;28;20104;-63
2022/09/01 12:10:20;;;;;;;0.00;0.00;;;24.30;51.10;;;;;;4180811;28;20052;-64
2022/09/01 12:13:03;;;;;;;0.00;0.00;;;24.30;51.00;;;;;;4184130;28;20532;-62
2022/09/01 12:15:53;;;;;;;0.00;0.00;;;24.30;51.20;;;;;;4186574;28;20066;-63
2022/09/01 12:18:58;;;;;;;0.00;0.00;;;24.30;51.00;;;;;;4185085;28;20051;-63
2022/09/01 12:21:41;;;;;;;0.00;0.00;;;24.30;50.00;;;;;;4186654;28;20503;-63
2022/09/01 12:24:24;;;;;;;0.00;0.00;;;24.30;50.90;;;;;;4201285;28;20119;-63
2022/09/01 12:27:05;;;;;;;0.00;0.00;;;24.30;49.80;;;;;;4194983;28;20393;-62
2022/09/01 12:29:46;;;;;;;0.00;0.00;;;24.30;48.60;;;;;;4208534;28;20059;-62
2022/09/01 12:32:28;;;;;;;0.00;0.00;;;24.30;48.40;;;;;;4190545;28;20145;-62
2022/09/01 12:35:18;;;;;;;0.05;0.05;;;24.30;48.40;;;;;;4190673;28;20056;-63
2022/09/01 12:38:23;;;;;;;0.00;0.00;;;24.30;49.00;;;;;;4193605;28;20063;-63
2022/09/01 12:41:26;;;;;;;0.00;0.00;;;24.30;49.60;;;;;;4190383;28;20056;-62
2022/09/01 12:44:28;;;;;;;0.00;0.00;;;24.30;49.00;;;;;;4188229;28;20105;-63
2022/09/01 12:47:13;;;;;;;0.00;0.00;;;24.30;49.20;;;;;;4182708;28;20063;-62
2022/09/01 12:49:54;;;;;;;0.00;0.00;;;24.30;49.70;;;;;;4194685;28;20084;-63
2022/09/01 12:52:46;;;;;;;0.00;0.00;;;24.30;48.70;;;;;;4199693;28;20058;-63
2022/09/01 12:55:30;;;;;;;0.00;0.00;;;24.30;49.10;;;;;;4194116;28;20108;-61
2022/09/01 12:58:32;;;;;;;0.00;0.00;;;24.30;49.30;;;;;;4195000;28;20121;-64
2022/09/01 13:01:26;;;;;;;0.00;0.00;;;24.30;49.00;;;;;;4200448;28;20071;-61
2022/09/01 13:04:12;;;;;;;0.00;0.00;;;24.30;49.70;;;;;;4195059;28;20055;-63
2022/09/01 13:06:55;;;;;;;0.25;0.25;;;24.30;49.70;;;;;;4188667;28;20582;-62
2022/09/01 13:09:38;;;;;;;0.00;0.00;;;24.30;48.30;;;;;;4198907;28;20051;-62
2022/09/01 13:12:21;;;;;;;0.00;0.00;;;24.30;48.50;;;;;;4185395;28;20067;-62
2022/09/01 13:15:01;;;;;;;0.00;0.00;;;24.30;48.70;;;;;;4178762;28;20191;-62
2022/09/01 13:17:43;;;;;;;0.00;0.00;;;24.30;48.60;;;;;;4176260;28;20072;-62
2022/09/01 13:20:24;;;;;;;0.00;0.00;;;24.40;48.80;;;;;;4176534;28;20506;-62
2022/09/01 13:23:05;;;;;;;0.00;0.00;;;24.30;48.60;;;;;;4173792;28;20052;-62
2022/09/01 13:25:48;;;;;;;0.00;0.00;;;24.30;48.70;;;;;;4180025;28;20063;-62
2022/09/01 13:28:30;;;;;;;0.00;0.00;;;24.30;48.00;;;;;;4184155;28;20051;-63
2022/09/01 13:31:12;;;;;;;0.00;0.00;;;24.40;48.00;;;;;;4181184;28;20051;-63
2022/09/01 13:34:09;;;;;;;0.00;0.00;;;24.40;47.50;;;;;;4188376;28;20409;-63
2022/09/01 13:37:02;;;;;;;0.10;0.10;;;24.40;47.20;;;;;;4190367;28;20060;-63
2022/09/01 13:39:44;;;;;;;0.00;0.00;;;24.40;47.10;;;;;;4189851;28;20063;-63
2022/09/01 13:42:26;;;;;;;0.00;0.00;;;24.40;47.40;;;;;;4201385;28;20534;-64
2022/09/01 13:45:11;;;;;;;0.00;0.00;;;24.40;47.20;;;;;;4189298;28;20051;-61
2022/09/01 13:47:53;;;;;;;0.00;0.00;;;24.40;47.10;;;;;;4196408;28;20177;-61
2022/09/01 13:50:54;;;;;;;0.00;0.00;;;24.40;47.00;;;;;;4188360;28;20170;-61
2022/09/01 13:53:55;;;;;;;0.00;0.00;;;24.40;47.00;;;;;;4186477;28;20056;-61
2022/09/01 13:56:36;;;;;;;;;;;24.40;47.30;;;;;;4192041;28;20098;-63
2022/09/01 13:59:19;;;;;;;0.00;0.00;;;24.40;47.70;;;;;;4206489;28;19940;-62
2022/09/01 14:02:00;;;;;;;0.00;0.00;;;24.40;46.60;;;;;;4200019;28;20063;-62
2022/09/01 14:04:41;;;;;;;0.00;0.00;;;24.40;46.40;;;;;;4193025;28;20055;-61
2022/09/01 14:07:22;;;;;;;0.00;0.00;;;24.40;46.60;;;;;;4206455;28;20105;-62
2022/09/01 14:10:06;;;;;;;;;;;24.40;47.10;;;;;;4195069;28;20055;-63
2022/09/01 14:12:47;;;;;;;0.00;0.00;;;24.40;47.10;;;;;;4192826;28;19932;-61
2022/09/01 14:15:30;;;;;;;0.10;0.10;;;24.40;47.10;;;;;;4192671;28;20047;-62
2022/09/01 14:18:12;;;;;;;0.00;0.00;;;24.40;47.40;;;;;;4180560;28;20060;-62
2022/09/01 14:20:56;;;;;;;0.00;0.00;;;24.40;47.20;;;;;;4184031;28;20509;-62
2022/09/01 14:23:36;;;;;;;0.00;0.00;;;24.40;47.10;;;;;;4183439;28;20142;-62
2022/09/01 14:26:18;;;;;;;0.00;0.00;;;24.40;46.70;;;;;;4187725;28;20477;-62
2022/09/01 14:29:01;;;;;;;0.57;0.57;;;24.40;47.30;;;;;;4175740;28;20048;-62
2022/09/01 14:31:43;;;;;;;0.00;0.00;;;24.50;47.80;;;;;;4177413;28;20134;-63
2022/09/01 14:34:25;;;;;;;0.00;0.00;;;24.50;47.80;;;;;;4177363;28;20071;-61
2022/09/01 14:37:06;;;;;;;0.00;0.00;;;24.50;47.10;;;;;;4192901;28;20056;-62